Time;durP1;ratioP1;P1;durP2;ratioP2;P2;SDS_P1;SDS_P2;PMS_P1;PMS_P2;Temp;Humidity;BMP_temperature;BMP_pressure;BME280_temperature;BME280_humidity;BME280_pressure;Samples;Min_cycle;Max_cycle;Signal;HPM_P1;HPM_P2
2023/06/26 00:02:18;;;;;;;18.48;15.35;;;;;;;19.93;65.32;93706.47;4976174;28;20023;-75
2023/06/26 00:04:44;;;;;;;20.25;15.35;;;;;;;20.08;64.63;93713.53;4974960;28;20387;-74
2023/06/26 00:07:09;;;;;;;17.92;16.00;;;;;;;20.16;64.61;93723.22;4976450;28;20093;-74
2023/06/26 00:09:35;;;;;;;17.38;15.10;;;;;;;20.04;64.80;93708.06;4956962;28;20034;-76
2023/06/26 00:12:00;;;;;;;18.50;14.57;;;;;;;20.06;64.98;93723.91;4961097;28;20063;-76
2023/06/26 00:14:26;;;;;;;18.38;14.50;;;;;;;20.26;64.39;93725.25;4973415;28;20018;-75
2023/06/26 00:16:52;;;;;;;17.45;13.75;;;;;;;20.08;64.71;93716.22;4978673;28;20022;-75
2023/06/26 00:19:18;;;;;;;17.77;14.25;;;;;;;20.20;64.36;93724.03;4975632;28;20166;-76
2023/06/26 00:21:47;;;;;;;16.30;14.23;;;;;;;20.21;64.26;93722.88;4974440;28;20030;-75
2023/06/26 00:24:16;;;;;;;17.88;14.23;;;;;;;20.13;64.53;93715.88;4958275;28;20718;-76
2023/06/26 00:26:42;;;;;;;16.83;13.90;;;;;;;20.13;64.54;93705.06;4976381;28;20125;-76
2023/06/26 00:29:08;;;;;;;16.77;12.90;;;;;;;20.16;64.27;93709.72;4976253;28;20029;-76
2023/06/26 00:31:35;;;;;;;17.17;12.95;;;;;;;20.24;64.04;93727.53;4973205;28;20145;-75
2023/06/26 00:34:01;;;;;;;16.30;13.60;;;;;;;20.12;64.52;93723.19;4956892;28;20041;-76
2023/06/26 00:36:26;;;;;;;15.00;12.93;;;;;;;19.88;64.92;93704.13;4974370;28;20084;-75
2023/06/26 00:38:52;;;;;;;16.65;13.65;;;;;;;19.80;65.79;93718.72;4958123;28;20042;-76
2023/06/26 00:41:19;;;;;;;15.50;13.32;;;;;;;19.62;66.37;93711.22;4977255;28;20497;-77
2023/06/26 00:43:44;;;;;;;14.30;12.73;;;;;;;19.65;66.86;93718.56;4975110;28;20054;-76
2023/06/26 00:46:12;;;;;;;15.95;13.27;;;;;;;19.54;66.68;93712.31;4959612;28;20038;-76
2023/06/26 00:48:41;;;;;;;13.52;12.15;;;;;;;19.53;66.67;93704.59;4974188;28;20038;-75
2023/06/26 00:51:08;;;;;;;17.45;12.10;;;;;;;19.46;67.02;93705.28;4976641;28;20161;-75
2023/06/26 00:53:33;;;;;;;15.70;12.15;;;;;;;19.47;67.02;93696.06;4960003;28;20026;-77
2023/06/26 00:56:00;;;;;;;15.73;12.82;;;;;;;19.42;67.04;93703.69;4975973;28;20038;-77
2023/06/26 00:58:26;;;;;;;15.82;12.30;;;;;;;19.24;67.99;93692.72;4971242;28;20052;-76
2023/06/26 01:00:52;;;;;;;14.38;11.38;;;;;;;19.27;68.28;93708.94;4971789;28;20042;-76
2023/06/26 01:03:19;;;;;;;14.65;12.27;;;;;;;19.28;67.70;93688.16;4973400;28;20435;-76
2023/06/26 01:05:49;;;;;;;13.52;12.13;;;;;;;19.39;67.26;93697.13;4973401;28;20038;-76
2023/06/26 01:08:15;;;;;;;14.90;12.05;;;;;;;19.50;67.17;93692.63;4975691;28;20026;-77
2023/06/26 01:10:41;;;;;;;15.75;12.27;;;;;;;19.61;66.62;93688.09;4975643;28;20478;-75
2023/06/26 01:13:07;;;;;;;14.07;11.48;;;;;;;19.55;66.07;93680.72;4977396;28;20038;-75
2023/06/26 01:15:33;;;;;;;16.15;13.02;;;;;;;19.40;65.84;93647.44;4975706;28;20628;-76
2023/06/26 01:17:59;;;;;;;15.05;12.18;;;;;;;19.72;65.65;93680.88;4977633;28;21023;-76
2023/06/26 01:20:26;;;;;;;14.15;12.68;;;;;;;19.77;65.09;93678.97;4981990;28;20109;-75
2023/06/26 01:23:30;;;;;;;14.35;11.50;;;;;;;19.65;65.30;93672.69;4978495;28;20018;-74
2023/06/26 01:26:27;;;;;;;16.63;12.52;;;;;;;19.43;65.62;93638.59;4980407;28;20049;-76
2023/06/26 01:28:53;;;;;;;15.27;13.32;;;;;;;19.57;65.56;93657.63;4959540;28;20065;-75
2023/06/26 01:31:19;;;;;;;16.52;11.55;;;;;;;19.54;65.20;93652.97;4980856;28;20130;-77
2023/06/26 01:33:46;;;;;;;15.82;12.70;;;;;;;19.74;64.73;93672.41;4979049;28;20495;-76
2023/06/26 01:36:12;;;;;;;15.82;12.45;;;;;;;19.73;64.65;93668.94;4978867;28;20069;-78
2023/06/26 01:38:37;;;;;;;17.40;12.38;;;;;;;19.81;64.09;93658.16;4978410;28;20125;-77
2023/06/26 01:41:04;;;;;;;15.05;11.45;;;;;;;19.79;64.21;93668.59;4976378;28;20469;-76
2023/06/26 01:43:54;;;;;;;13.98;11.18;;;;;;;19.89;63.59;93668.66;4978466;28;20034;-76
2023/06/26 01:46:29;;;;;;;22.60;12.18;;;;;;;;;;4961175;28;20200;-76
2023/06/26 01:49:15;;;;;;;15.70;11.63;;;;;;;19.83;63.43;93653.19;4951573;28;20471;-76
2023/06/26 01:51:58;;;;;;;22.95;12.68;;;;;;;19.88;63.50;93666.34;4975986;28;20046;-76
2023/06/26 01:54:25;;;;;;;15.80;12.20;;;;;;;19.57;64.42;93646.81;4964268;28;20061;-76
2023/06/26 01:56:53;;;;;;;15.27;11.38;;;;;;;19.78;63.45;93658.94;4981059;28;20449;-77
2023/06/26 01:59:20;;;;;;;14.05;11.50;;;;;;;19.72;63.69;93651.19;4979986;28;20026;-75
2023/06/26 02:01:47;;;;;;;13.23;11.82;;;;;;;19.71;63.67;93660.41;4980995;28;20042;-74
2023/06/26 02:04:12;;;;;;;13.88;11.60;;;;;;;19.59;64.10;93659.94;4978636;28;20435;-76
2023/06/26 02:06:38;;;;;;;14.38;12.75;;;;;;;19.59;63.60;93660.72;4981657;28;20133;-75
2023/06/26 02:09:03;;;;;;;15.65;11.15;;;;;;;19.51;63.71;93637.53;4980305;28;20620;-75
2023/06/26 02:11:29;;;;;;;12.88;11.45;;;;;;;19.59;63.42;93638.38;4964643;28;20482;-76
2023/06/26 02:13:54;;;;;;;13.85;12.40;;;;;;;19.63;63.35;93658.03;4980990;28;20925;-76
2023/06/26 02:16:20;;;;;;;16.77;12.55;;;;;;;19.62;63.22;93643.78;4976916;28;20089;-76
2023/06/26 02:18:45;;;;;;;19.70;12.55;;;;;;;19.63;62.97;93650.72;4980533;28;20573;-77
2023/06/26 02:21:10;;;;;;;14.38;12.85;;;;;;;19.55;63.75;93648.34;4979995;28;20046;-77
2023/06/26 02:23:36;;;;;;;13.88;12.07;;;;;;;19.41;63.90;93640.88;4961502;28;20506;-74
2023/06/26 02:26:01;;;;;;;15.27;12.88;;;;;;;19.43;64.12;93652.06;4979731;28;20027;-75
2023/06/26 02:28:26;;;;;;;14.88;13.25;;;;;;;19.49;64.26;93656.00;4978862;28;20891;-75
2023/06/26 02:30:52;;;;;;;15.55;14.02;;;;;;;19.34;64.56;93648.91;4979742;28;20038;-76
2023/06/26 02:33:17;;;;;;;15.98;13.35;;;;;;;19.50;64.00;93654.09;4977107;28;20061;-75
2023/06/26 02:35:43;;;;;;;15.63;13.57;;;;;;;19.47;63.73;93644.03;4979743;28;20038;-76
2023/06/26 02:38:08;;;;;;;17.13;14.82;;;;;;;19.40;64.23;93650.13;4982905;28;20426;-75
2023/06/26 02:40:33;;;;;;;14.73;13.20;;;;;;;19.37;64.49;93652.78;4978266;28;20089;-76
2023/06/26 02:42:59;;;;;;;19.33;14.25;;;;;;;19.44;64.29;93664.41;4979657;28;20033;-76
2023/06/26 02:45:24;;;;;;;16.33;13.88;;;;;;;19.44;64.03;93661.72;4978410;28;20471;-76
2023/06/26 02:47:52;;;;;;;16.35;13.18;;;;;;;19.36;64.22;93654.69;4980320;28;20047;-73
2023/06/26 02:50:18;;;;;;;18.42;14.00;;;;;;;19.42;63.68;93644.34;4978817;28;20529;-77
2023/06/26 02:52:43;;;;;;;17.02;13.88;;;;;;;19.46;63.64;93640.56;4960017;28;20038;-76
2023/06/26 02:55:08;;;;;;;16.00;12.63;;;;;;;19.47;63.63;93669.09;4979696;28;20035;-75
2023/06/26 02:57:34;;;;;;;15.85;13.68;;;;;;;19.53;63.55;93662.22;4975372;28;20034;-75
2023/06/26 02:59:59;;;;;;;15.18;13.57;;;;;;;19.44;63.54;93653.63;4977845;28;20573;-76
2023/06/26 03:02:24;;;;;;;15.55;13.95;;;;;;;19.57;63.02;93657.63;4979566;28;20393;-77
2023/06/26 03:04:50;;;;;;;15.88;14.25;;;;;;;19.61;62.72;93661.13;4979280;28;20046;-76
2023/06/26 03:07:15;;;;;;;16.70;15.00;;;;;;;19.60;62.62;93656.84;4976828;28;20437;-74
2023/06/26 03:09:41;;;;;;;16.67;14.90;;;;;;;19.65;62.88;93663.84;4979653;28;20542;-73
2023/06/26 03:12:07;;;;;;;19.95;15.07;;;;;;;19.72;62.64;93670.06;4978417;28;20084;-74
2023/06/26 03:14:32;;;;;;;17.13;15.20;;;;;;;19.63;62.37;93669.63;4979158;28;20234;-73
2023/06/26 03:16:59;;;;;;;16.58;14.70;;;;;;;19.70;62.04;93666.22;4980564;28;20042;-73
2023/06/26 03:19:24;;;;;;;16.95;14.75;;;;;;;19.57;62.42;93659.53;4975426;28;20616;-73
2023/06/26 03:21:50;;;;;;;14.73;13.23;;;;;;;19.43;63.10;93667.47;4980924;28;20044;-73
2023/06/26 03:24:15;;;;;;;16.38;14.68;;;;;;;19.38;63.31;93655.13;4978323;28;20129;-74
2023/06/26 03:26:40;;;;;;;15.25;13.60;;;;;;;19.51;63.24;93675.28;4977342;28;20640;-73
2023/06/26 03:29:07;;;;;;;17.13;15.27;;;;;;;19.46;63.46;93666.75;4981149;28;20720;-73
2023/06/26 03:31:32;;;;;;;17.30;15.40;;;;;;;19.20;64.00;93657.66;4952485;28;20034;-74
2023/06/26 03:33:57;;;;;;;19.05;15.07;;;;;;;19.30;64.14;93656.19;4977406;28;20854;-74
2023/06/26 03:36:23;;;;;;;15.88;14.20;;;;;;;19.42;63.72;93663.22;4977305;28;20505;-73
2023/06/26 03:38:48;;;;;;;17.63;15.27;;;;;;;19.35;63.75;93661.25;4976244;28;20125;-74
2023/06/26 03:41:13;;;;;;;17.20;15.50;;;;;;;19.48;63.70;93676.03;4979729;28;20410;-74
2023/06/26 03:43:39;;;;;;;17.38;15.55;;;;;;;19.50;63.35;93676.44;4976258;28;20393;-73
2023/06/26 03:46:04;;;;;;;16.95;15.25;;;;;;;19.42;63.96;93672.09;4978078;28;20050;-73
2023/06/26 03:48:30;;;;;;;20.65;15.23;;;;;;;19.33;63.73;93658.16;4975608;28;20074;-73
2023/06/26 03:50:55;;;;;;;18.65;16.02;;;;;;;19.34;64.34;93673.19;4977878;28;20556;-73
2023/06/26 03:53:20;;;;;;;17.20;15.35;;;;;;;19.28;64.43;93672.75;4976682;28;20125;-74
2023/06/26 03:55:46;;;;;;;16.15;14.40;;;;;;;19.13;64.69;93648.72;4959654;28;20683;-74
2023/06/26 03:58:11;;;;;;;19.48;15.40;;;;;;;19.11;65.10;93640.22;4958956;28;20406;-73
2023/06/26 04:00:37;;;;;;;16.00;14.32;;;;;;;19.37;64.07;93669.72;4979164;28;20026;-74
2023/06/26 04:03:02;;;;;;;20.88;16.52;;;;;;;19.21;64.00;93658.44;4977376;28;20510;-73
2023/06/26 04:05:28;;;;;;;15.88;13.73;;;;;;;19.16;64.51;93659.53;4976326;28;20034;-72
2023/06/26 04:07:54;;;;;;;17.02;14.23;;;;;;;19.18;64.93;93669.94;4976133;28;20557;-75
2023/06/26 04:10:21;;;;;;;15.88;14.25;;;;;;;19.19;64.59;93664.19;4977835;28;20031;-73
2023/06/26 04:12:46;;;;;;;18.70;15.20;;;;;;;19.29;64.85;93673.53;4976477;28;20557;-74
2023/06/26 04:15:12;;;;;;;17.55;14.25;;;;;;;19.20;64.21;93656.88;4974187;28;20038;-73
2023/06/26 04:17:37;;;;;;;19.25;14.95;;;;;;;19.21;65.05;93671.91;4959039;28;20670;-73
2023/06/26 04:20:06;;;;;;;18.00;15.98;;;;;;;19.18;65.02;93672.63;4978153;28;20627;-74
2023/06/26 04:22:32;;;;;;;18.80;14.25;;;;;;;19.19;64.14;93652.63;4975149;28;20065;-73
2023/06/26 04:24:57;;;;;;;17.58;15.00;;;;;;;19.20;64.73;93670.34;4977839;28;20061;-73
2023/06/26 04:27:23;;;;;;;17.77;14.60;;;;;;;19.15;63.99;93662.59;4968540;28;20502;-74
2023/06/26 04:29:48;;;;;;;16.85;14.68;;;;;;;19.17;64.08;93665.69;4978488;28;20042;-74
2023/06/26 04:32:13;;;;;;;19.08;13.48;;;;;;;19.29;64.37;93676.22;4977233;28;20490;-74
2023/06/26 04:34:42;;;;;;;20.92;14.32;;;;;;;19.44;63.51;93674.44;4976865;28;20030;-74
2023/06/26 04:37:09;;;;;;;15.90;14.27;;;;;;;19.52;63.29;93676.84;4977432;28;20565;-74
2023/06/26 04:39:36;;;;;;;20.30;15.13;;;;;;;19.25;64.26;93667.31;4979212;28;20502;-74
2023/06/26 04:42:03;;;;;;;17.00;15.20;;;;;;;19.38;64.53;93682.06;4974745;28;20049;-73
2023/06/26 04:44:28;;;;;;;15.60;14.00;;;;;;;19.40;64.29;93685.19;4978774;28;20089;-73
2023/06/26 04:46:53;;;;;;;16.23;14.25;;;;;;;19.32;64.46;93672.78;4976776;28;20030;-75
2023/06/26 04:49:19;;;;;;;16.15;14.55;;;;;;;19.24;65.05;93655.75;4976876;28;20909;-74
2023/06/26 04:51:45;;;;;;;17.92;14.98;;;;;;;19.19;66.79;93687.66;4976353;28;20577;-72
2023/06/26 04:54:11;;;;;;;16.40;14.27;;;;;;;19.37;66.02;93694.00;4961060;28;20518;-74
2023/06/26 04:56:37;;;;;;;16.02;14.48;;;;;;;19.38;65.78;93682.06;4975782;28;20030;-74
2023/06/26 04:59:03;;;;;;;17.80;14.70;;;;;;;19.53;64.96;93688.41;4959428;28;20026;-74
2023/06/26 05:01:29;;;;;;;17.55;15.73;;;;;;;19.57;65.79;93663.00;4976144;28;20047;-73
2023/06/26 05:03:58;;;;;;;17.17;14.27;;;;;;;19.80;65.82;93681.69;4975216;28;20046;-73
2023/06/26 05:06:24;;;;;;;17.58;14.10;;;;;;;19.81;64.44;93683.22;4974863;28;20117;-72
2023/06/26 05:08:49;;;;;;;17.73;15.88;;;;;;;19.80;64.43;93686.31;4960572;28;20053;-73
2023/06/26 05:11:15;;;;;;;16.60;14.65;;;;;;;19.72;64.26;93683.56;4977425;28;20033;-75
2023/06/26 05:13:41;;;;;;;16.10;14.50;;;;;;;19.61;65.04;93682.69;4972650;28;20484;-74
2023/06/26 05:16:08;;;;;;;17.17;15.40;;;;;;;19.46;64.42;93678.31;4975559;28;20038;-74
2023/06/26 05:18:34;;;;;;;19.02;15.70;;;;;;;19.37;65.55;93674.34;4973673;28;20205;-74
2023/06/26 05:21:00;;;;;;;22.23;15.50;;;;;;;19.50;65.45;93699.94;4978480;28;20035;-76
2023/06/26 05:23:26;;;;;;;21.55;16.45;;;;;;;19.24;65.80;93671.94;4975007;28;20035;-74
2023/06/26 05:25:52;;;;;;;19.88;16.60;;;;;;;19.33;65.15;93687.81;4980505;28;20402;-74
2023/06/26 05:28:18;;;;;;;16.33;14.50;;;;;;;19.42;66.17;93692.88;4969964;28;22444;-74
2023/06/26 05:30:44;;;;;;;17.10;15.27;;;;;;;19.48;66.40;93697.63;4971484;28;20042;-74
2023/06/26 05:33:17;;;;;;;17.08;15.30;;;;;;;19.62;64.69;93697.72;4973255;28;20034;-73
2023/06/26 05:35:45;;;;;;;19.73;13.88;;;;;;;19.78;63.64;93704.81;4961120;28;20050;-75
2023/06/26 05:38:13;;;;;;;17.30;15.00;;;;;;;19.58;64.67;93713.13;4972983;28;20238;-74
2023/06/26 05:40:40;;;;;;;18.77;15.00;;;;;;;19.54;65.71;93715.00;4974002;28;20740;-72
2023/06/26 05:43:06;;;;;;;16.63;14.93;;;;;;;19.71;64.12;93717.06;4958544;28;20037;-74
2023/06/26 05:45:32;;;;;;;18.48;15.75;;;;;;;19.84;63.77;93711.41;4976751;28;20133;-75
2023/06/26 05:47:58;;;;;;;19.77;14.68;;;;;;;19.77;63.83;93698.63;4956735;28;22411;-73
2023/06/26 05:50:24;;;;;;;19.80;15.60;;;;;;;19.65;65.00;93696.97;4976606;28;20494;-75
2023/06/26 05:52:50;;;;;;;16.48;14.82;;;;;;;19.70;64.24;93712.81;4960400;28;20029;-73
2023/06/26 05:55:15;;;;;;;17.63;14.48;;;;;;;19.56;65.04;93704.63;4959700;28;20054;-75
2023/06/26 05:57:41;;;;;;;21.83;15.25;;;;;;;19.51;65.39;93713.03;4974315;28;20034;-75
2023/06/26 06:00:10;;;;;;;15.55;13.95;;;;;;;19.66;65.20;93714.72;4973906;28;20137;-76
2023/06/26 06:02:37;;;;;;;18.85;14.88;;;;;;;19.67;64.67;93704.72;4977923;28;20554;-73
2023/06/26 06:05:03;;;;;;;16.45;14.70;;;;;;;19.64;64.46;93702.75;4980511;28;20041;-75
2023/06/26 06:07:28;;;;;;;16.77;15.02;;;;;;;19.54;64.95;93715.00;4980323;28;20053;-75
2023/06/26 06:09:53;;;;;;;16.63;14.82;;;;;;;19.71;65.28;93722.47;4960428;28;20082;-75
2023/06/26 06:12:19;;;;;;;14.75;13.25;;;;;;;19.77;64.58;93708.66;4976834;28;20030;-74
2023/06/26 06:14:44;;;;;;;16.80;15.13;;;;;;;19.74;64.55;93710.97;4975816;28;20113;-78
2023/06/26 06:17:09;;;;;;;17.13;15.25;;;;;;;19.69;64.93;93718.63;4980279;28;20125;-74
2023/06/26 06:19:36;;;;;;;15.40;13.90;;;;;;;19.77;64.82;93714.03;4976649;28;20070;-76
2023/06/26 06:22:01;;;;;;;17.63;13.90;;;;;;;19.66;64.83;93693.13;4962007;28;20034;-75
2023/06/26 06:24:26;;;;;;;15.65;13.95;;;;;;;19.82;64.78;93700.19;4976968;28;20613;-76
2023/06/26 06:26:52;;;;;;;15.68;14.07;;;;;;;19.70;64.66;93696.63;4978897;28;20041;-77
2023/06/26 06:29:19;;;;;;;14.95;13.50;;;;;;;19.60;63.78;93673.03;4977626;28;20130;-74
2023/06/26 06:31:44;;;;;;;18.90;15.27;;;;;;;19.65;65.08;93701.63;4979148;28;20125;-78
2023/06/26 06:34:10;;;;;;;17.25;13.30;;;;;;;19.84;64.74;93706.78;4978223;28;20034;-76
2023/06/26 06:36:36;;;;;;;15.70;13.52;;;;;;;19.91;64.31;93708.75;4975469;28;20078;-75
2023/06/26 06:39:01;;;;;;;16.38;13.65;;;;;;;20.16;62.91;93715.91;4981357;28;20149;-78
2023/06/26 06:41:27;;;;;;;15.27;12.32;;;;;;;19.94;63.56;93700.69;4976370;28;20951;-75
2023/06/26 06:43:52;;;;;;;15.05;13.02;;;;;;;20.06;62.68;93695.00;4975778;28;20544;-72
2023/06/26 06:46:17;;;;;;;14.82;12.77;;;;;;;20.08;63.14;93703.50;4977098;28;20046;-77
2023/06/26 06:48:43;;;;;;;15.07;12.50;;;;;;;20.24;62.80;93703.22;4979463;28;20550;-77
2023/06/26 06:51:08;;;;;;;15.25;12.98;;;;;;;20.15;62.00;93686.56;4977337;28;20038;-75
2023/06/26 06:53:34;;;;;;;14.63;12.40;;;;;;;20.30;62.50;93699.03;4977437;28;20401;-76
2023/06/26 06:55:59;;;;;;;14.85;11.85;;;;;;;20.32;61.78;93704.84;4977021;28;20308;-76
2023/06/26 06:58:24;;;;;;;15.52;12.93;;;;;;;20.47;61.48;93703.00;4976526;28;20030;-76
2023/06/26 07:00:51;;;;;;;14.38;12.48;;;;;;;20.43;61.79;93702.97;4977678;28;20509;-77
2023/06/26 07:03:17;;;;;;;18.08;10.95;;;;;;;20.45;62.41;93695.25;4978620;28;20142;-76
2023/06/26 07:05:42;;;;;;;16.45;13.00;;;;;;;20.58;61.70;93688.38;4959420;28;20057;-77
2023/06/26 07:08:08;;;;;;;15.05;13.20;;;;;;;20.83;60.75;93702.00;4960878;28;20037;-77
2023/06/26 07:10:34;;;;;;;11.93;10.70;;;;;;;20.48;60.73;93691.78;4976703;28;20035;-76
2023/06/26 07:12:59;;;;;;;12.90;11.60;;;;;;;20.56;60.57;93701.50;4977605;28;20045;-75
2023/06/26 07:15:25;;;;;;;12.02;10.80;;;;;;;20.67;60.98;93696.16;4978499;28;20061;-76
2023/06/26 07:17:50;;;;;;;13.43;9.93;;;;;;;20.76;57.66;93682.28;4977456;28;20099;-75
2023/06/26 07:20:15;;;;;;;10.63;8.77;;;;;;;20.70;58.26;93689.97;4978955;28;20366;-76
2023/06/26 07:22:42;;;;;;;11.38;10.18;;;;;;;20.76;58.38;93677.66;4959807;28;20502;-76
2023/06/26 07:25:11;;;;;;;12.85;11.20;;;;;;;20.68;59.92;93681.47;4975436;28;20286;-76
2023/06/26 07:27:37;;;;;;;12.02;10.82;;;;;;;20.99;58.88;93701.69;4957816;28;20129;-76
2023/06/26 07:30:03;;;;;;;10.38;9.27;;;;;;;21.08;58.83;93687.81;4978164;28;20038;-76
2023/06/26 07:32:28;;;;;;;11.93;10.18;;;;;;;21.18;59.21;93681.66;4966130;28;20374;-74
2023/06/26 07:34:54;;;;;;;11.23;9.40;;;;;;;21.09;56.96;93679.31;4949413;28;20133;-76
2023/06/26 07:37:19;;;;;;;10.95;8.43;;;;;;;21.34;55.67;93690.19;4953550;28;20529;-75
2023/06/26 07:39:45;;;;;;;9.68;8.43;;;;;;;21.33;55.02;93692.13;4969504;28;20042;-75
2023/06/26 07:42:10;;;;;;;11.80;6.95;;;;;;;21.02;56.52;93682.03;4965145;28;20065;-76
2023/06/26 07:44:36;;;;;;;8.50;7.60;;;;;;;21.23;55.01;93695.59;4967541;28;20402;-73
2023/06/26 07:47:02;;;;;;;11.43;7.57;;;;;;;21.09;55.72;93676.63;4971625;28;20959;-76
2023/06/26 07:49:27;;;;;;;10.23;8.68;;;;;;;21.34;56.39;93696.38;4965763;28;20470;-76
2023/06/26 07:51:52;;;;;;;13.57;9.00;;;;;;;21.57;55.62;93695.28;4968475;28;20708;-75
2023/06/26 07:54:18;;;;;;;7.40;6.35;;;;;;;21.50;53.61;93689.84;4949434;28;20031;-76
2023/06/26 07:56:56;;;;;;;8.35;6.20;;;;;;;21.44;53.83;93695.63;4958458;28;20043;-74
2023/06/26 07:59:23;;;;;;;8.38;6.43;;;;;;;21.52;52.07;93688.28;4971636;28;20034;-75
2023/06/26 08:01:51;;;;;;;8.30;6.28;;;;;;;21.47;53.09;93675.13;4967792;28;20518;-78
2023/06/26 08:04:18;;;;;;;9.60;8.20;;;;;;;21.57;54.64;93692.56;4967808;28;20494;-75
2023/06/26 08:06:44;;;;;;;9.13;7.13;;;;;;;21.46;54.46;93692.56;4966183;28;20041;-75
2023/06/26 08:09:09;;;;;;;10.73;7.40;;;;;;;21.44;54.72;93676.69;4968897;28;20069;-76
2023/06/26 08:11:35;;;;;;;9.07;7.20;;;;;;;21.37;54.41;93662.38;4955903;28;20045;-77
2023/06/26 08:14:00;;;;;;;13.70;7.95;;;;;;;21.70;54.19;93683.72;4955452;28;20025;-77
2023/06/26 08:16:25;;;;;;;11.23;7.78;;;;;;;21.79;54.68;93661.66;4975835;28;20045;-76
2023/06/26 08:18:51;;;;;;;8.73;6.70;;;;;;;21.98;52.42;93674.81;4975320;28;20406;-76
2023/06/26 08:21:16;;;;;;;8.15;6.70;;;;;;;21.94;53.60;93684.88;4973893;28;20046;-76
2023/06/26 08:23:42;;;;;;;7.47;6.00;;;;;;;21.83;52.15;93667.84;4973214;28;20161;-76
2023/06/26 08:26:07;;;;;;;6.72;6.00;;;;;;;21.82;52.46;93666.28;4972570;28;20022;-77
2023/06/26 08:28:33;;;;;;;7.10;6.40;;;;;;;21.92;52.53;93681.00;4976338;28;20537;-76
2023/06/26 08:30:59;;;;;;;14.77;7.53;;;;;;;21.71;52.72;93670.94;4974882;28;20129;-76
2023/06/26 08:33:25;;;;;;;8.23;7.13;;;;;;;21.78;52.71;93687.19;4975723;28;20141;-75
2023/06/26 08:35:50;;;;;;;7.50;6.80;;;;;;;22.03;53.16;93687.94;4972976;28;20042;-74
2023/06/26 08:38:16;;;;;;;6.85;6.07;;;;;;;22.13;51.21;93694.53;4972359;28;20562;-74
2023/06/26 08:40:41;;;;;;;7.28;5.82;;;;;;;22.01;51.25;93682.13;4956837;28;20176;-74
2023/06/26 08:43:06;;;;;;;9.95;5.97;;;;;;;22.07;52.74;93688.72;4961830;28;20034;-74
2023/06/26 08:45:33;;;;;;;6.55;5.95;;;;;;;21.82;52.80;93696.84;4958649;28;20038;-74
2023/06/26 08:48:00;;;;;;;6.88;5.10;;;;;;;21.65;53.34;93658.97;4955935;28;20794;-73
2023/06/26 08:50:30;;;;;;;7.03;5.90;;;;;;;22.17;50.31;93693.34;4975729;28;20127;-72
2023/06/26 08:53:18;;;;;;;6.65;5.07;;;;;;;22.33;50.45;93689.50;4978577;28;20093;-74
2023/06/26 08:55:44;;;;;;;8.68;5.32;;;;;;;22.34;50.47;93691.03;4961321;28;20038;-74
2023/06/26 08:58:11;;;;;;;6.55;5.30;;;;;;;22.37;50.82;93695.66;4975452;28;20406;-74
2023/06/26 09:00:36;;;;;;;6.80;5.45;;;;;;;22.44;50.08;93690.25;4976609;28;20414;-76
2023/06/26 09:03:03;;;;;;;5.45;4.95;;;;;;;22.45;49.43;93672.81;4975157;28;20038;-74
2023/06/26 09:05:31;;;;;;;6.13;5.47;;;;;;;22.53;49.46;93682.47;4977021;28;20033;-74
2023/06/26 09:07:56;;;;;;;5.72;4.03;;;;;;;22.37;48.70;93687.53;4975327;28;20030;-74
2023/06/26 09:10:22;;;;;;;6.97;5.57;;;;;;;22.48;50.76;93682.88;4977468;28;20449;-74
2023/06/26 09:12:48;;;;;;;6.72;5.28;;;;;;;22.49;48.23;93692.53;4975608;28;20564;-74
2023/06/26 09:15:15;;;;;;;6.85;5.00;;;;;;;22.10;49.05;93692.56;4976265;28;20719;-74
2023/06/26 09:17:42;;;;;;;5.82;5.05;;;;;;;21.87;47.60;93690.28;4973973;28;20122;-75
2023/06/26 09:20:08;;;;;;;8.00;5.43;;;;;;;21.71;50.51;93693.34;4976861;28;20116;-74
2023/06/26 09:22:38;;;;;;;6.35;5.75;;;;;;;21.97;49.56;93686.78;4974083;28;20040;-75
2023/06/26 09:25:05;;;;;;;10.95;5.82;;;;;;;21.87;49.21;93680.22;4973400;28;20101;-75
2023/06/26 09:27:31;;;;;;;6.35;4.78;;;;;;;21.96;49.64;93681.75;4977139;28;20050;-74
2023/06/26 09:29:58;;;;;;;7.45;5.55;;;;;;;22.20;49.65;93689.84;4958777;28;20043;-75
2023/06/26 09:32:27;;;;;;;9.10;5.50;;;;;;;22.02;49.76;93653.91;4976655;28;20030;-75
2023/06/26 09:34:55;;;;;;;7.63;4.97;;;;;;;22.41;49.56;93680.16;4974528;28;21098;-76
2023/06/26 09:37:22;;;;;;;7.20;5.72;;;;;;;21.92;49.78;93681.00;4978380;28;20125;-78
2023/06/26 09:39:47;;;;;;;6.50;5.80;;;;;;;22.07;50.07;93672.47;4977180;28;20068;-77
2023/06/26 09:42:16;;;;;;;6.55;5.63;;;;;;;22.00;51.47;93680.59;4978873;28;20520;-77
2023/06/26 09:44:46;;;;;;;6.82;5.72;;;;;;;22.01;49.18;93663.19;4973843;28;20050;-77
2023/06/26 09:47:11;;;;;;;7.30;5.82;;;;;;;21.95;48.87;93645.78;4979941;28;20041;-77
2023/06/26 09:49:42;;;;;;;6.20;5.60;;;;;;;22.24;47.49;93682.53;4969919;28;20398;-77
2023/06/26 09:52:07;;;;;;;6.85;5.10;;;;;;;22.11;47.51;93688.69;4972603;28;20070;-77
2023/06/26 09:54:33;;;;;;;5.90;4.95;;;;;;;22.24;46.61;93679.06;4979317;28;20336;-77
2023/06/26 09:57:08;;;;;;;5.93;4.82;;;;;;;22.36;47.46;93684.06;4975930;28;20046;-77
2023/06/26 09:59:34;;;;;;;5.70;5.10;;;;;;;22.49;46.81;93676.28;4978756;28;20026;-77
2023/06/26 10:02:00;;;;;;;5.55;4.82;;;;;;;22.45;46.91;93673.56;4977328;28;20513;-76
2023/06/26 10:04:26;;;;;;;8.02;5.97;;;;;;;22.38;48.11;93686.38;4977000;28;20518;-77
2023/06/26 10:06:55;;;;;;;6.05;5.10;;;;;;;22.43;46.74;93683.28;4961568;28;20053;-77
2023/06/26 10:09:22;;;;;;;6.05;5.30;;;;;;;22.43;47.08;93669.72;4975579;28;20601;-76
2023/06/26 10:11:56;;;;;;;6.75;4.97;;;;;;;22.56;46.66;93677.03;4961072;28;20034;-77
2023/06/26 10:14:25;;;;;;;8.02;5.43;;;;;;;22.54;45.69;93673.16;4974114;28;20026;-77
2023/06/26 10:16:51;;;;;;;8.07;4.45;;;;;;;22.50;46.43;93684.03;4962753;28;20076;-77
2023/06/26 10:19:23;;;;;;;7.13;4.80;;;;;;;22.45;45.81;93664.66;4976872;28;20466;-76
2023/06/26 10:21:52;;;;;;;6.10;5.10;;;;;;;22.54;46.72;93656.91;4958777;28;20030;-77
2023/06/26 10:24:20;;;;;;;5.18;4.68;;;;;;;22.64;44.14;93664.22;4976619;28;20510;-76
2023/06/26 10:26:49;;;;;;;7.03;4.75;;;;;;;22.46;46.23;93677.06;4957920;28;20373;-76
2023/06/26 10:29:16;;;;;;;10.20;4.70;;;;;;;22.06;45.78;93665.50;4959794;28;20548;-76
2023/06/26 10:31:46;;;;;;;7.57;5.43;;;;;;;22.16;45.61;93680.97;4961058;28;20042;-75
2023/06/26 10:34:12;;;;;;;6.28;4.97;;;;;;;22.20;46.17;93660.06;4978591;28;20031;-76
2023/06/26 10:36:38;;;;;;;6.50;4.93;;;;;;;22.46;46.19;93677.84;4977129;28;20476;-75
2023/06/26 10:39:05;;;;;;;8.23;5.20;;;;;;;22.25;45.62;93656.97;4975878;28;20450;-76
2023/06/26 10:41:37;;;;;;;6.93;5.15;;;;;;;22.26;45.16;93674.78;4973993;28;20375;-77
2023/06/26 10:44:08;;;;;;;7.13;5.18;;;;;;;22.02;44.71;93669.38;4975714;28;20590;-76
2023/06/26 10:46:49;;;;;;;5.13;4.53;;;;;;;21.94;45.10;93673.25;4975901;28;20681;-77
2023/06/26 10:49:14;;;;;;;6.85;5.38;;;;;;;22.04;45.55;93673.25;4977082;28;20645;-78
2023/06/26 10:51:48;;;;;;;9.13;5.72;;;;;;;22.26;45.07;93668.59;4973577;28;20054;-76
2023/06/26 10:54:15;;;;;;;9.00;5.70;;;;;;;21.86;44.69;93667.84;4959042;28;20034;-75
2023/06/26 10:56:46;;;;;;;5.30;4.60;;;;;;;22.03;44.37;93655.47;4958367;28;20110;-77
2023/06/26 10:59:19;;;;;;;6.88;4.93;;;;;;;22.21;44.82;93658.94;4959177;28;20599;-77
2023/06/26 11:01:55;;;;;;;10.23;5.28;;;;;;;22.13;45.02;93653.91;4976185;28;20074;-76
2023/06/26 11:04:39;;;;;;;11.02;5.60;;;;;;;21.88;46.68;93646.56;4977287;28;20134;-77
2023/06/26 11:07:19;;;;;;;6.30;5.20;;;;;;;22.28;44.74;93661.63;4971299;28;20043;-74
2023/06/26 11:10:07;;;;;;;9.77;6.00;;;;;;;22.39;46.62;93661.59;4950415;28;20803;-76
2023/06/26 11:12:37;;;;;;;7.35;6.20;;;;;;;22.10;46.75;93658.13;4974166;28;20065;-77
2023/06/26 11:15:13;;;;;;;6.68;5.70;;;;;;;22.06;46.25;93662.78;4955475;28;20557;-78
2023/06/26 11:17:40;;;;;;;10.05;6.40;;;;;;;22.40;45.79;93665.06;4973582;28;20049;-74
2023/06/26 11:20:10;;;;;;;7.10;6.05;;;;;;;22.45;46.21;93654.63;4976827;28;20018;-75
2023/06/26 11:22:38;;;;;;;6.47;5.35;;;;;;;22.52;45.55;93659.25;4956962;28;20081;-74